createdAt,value
2019-01-28T00:00:48.766Z,968.73
2019-01-28T00:01:48.717Z,968.73
2019-01-28T00:02:48.704Z,968.68
2019-01-28T00:03:48.698Z,968.74
2019-01-28T00:04:48.730Z,968.67
2019-01-28T00:05:48.739Z,968.69
2019-01-28T00:06:48.661Z,968.72
2019-01-28T00:07:48.662Z,968.75
2019-01-28T00:08:48.641Z,968.70
2019-01-28T00:09:48.632Z,968.74
2019-01-28T00:10:48.672Z,968.73
2019-01-28T00:11:48.609Z,968.74
2019-01-28T00:12:48.593Z,968.76
2019-01-28T00:13:48.583Z,968.71
2019-01-28T00:14:48.573Z,968.73
2019-01-28T00:15:48.593Z,968.77
2019-01-28T00:16:48.568Z,968.69
2019-01-28T00:17:48.545Z,968.76
2019-01-28T00:18:48.534Z,968.76
2019-01-28T00:19:48.514Z,968.76
2019-01-28T00:20:48.524Z,968.76
2019-01-28T00:21:48.498Z,968.72
2019-01-28T00:22:48.481Z,968.71
2019-01-28T00:23:48.497Z,968.77
2019-01-28T00:24:48.491Z,968.77
2019-01-28T00:25:48.454Z,968.78
2019-01-28T00:26:48.462Z,968.84
2019-01-28T00:27:48.431Z,968.72
2019-01-28T00:28:48.443Z,968.80
2019-01-28T00:29:48.434Z,968.79
2019-01-28T00:30:48.401Z,968.75
2019-01-28T00:31:48.412Z,968.72
2019-01-28T00:32:48.369Z,968.72
2019-01-28T00:33:48.362Z,968.82
2019-01-28T00:34:48.346Z,968.81
2019-01-28T00:35:48.363Z,968.82
2019-01-28T00:36:48.344Z,968.76
2019-01-28T00:37:48.316Z,968.78
2019-01-28T00:38:48.340Z,968.74
2019-01-28T00:39:48.293Z,968.77
2019-01-28T00:40:48.305Z,968.68
2019-01-28T00:41:48.279Z,968.79
2019-01-28T00:42:48.310Z,968.70
2019-01-28T00:43:48.287Z,968.77
2019-01-28T00:44:48.250Z,968.78
2019-01-28T00:45:48.224Z,968.74
2019-01-28T00:46:48.258Z,968.69
2019-01-28T00:47:48.206Z,968.72
2019-01-28T00:48:48.196Z,968.76
2019-01-28T00:49:48.180Z,968.73
2019-01-28T00:50:48.182Z,968.74
2019-01-28T00:51:48.192Z,968.74
2019-01-28T00:52:48.162Z,968.67
2019-01-28T00:53:48.137Z,968.70
2019-01-28T00:54:48.168Z,968.72
2019-01-28T00:55:48.113Z,968.78
2019-01-28T00:56:48.101Z,968.72
2019-01-28T00:57:48.091Z,968.69
2019-01-28T00:58:48.088Z,968.73
2019-01-28T00:59:48.103Z,968.75
2019-01-28T01:00:48.074Z,968.69
2019-01-28T01:01:48.050Z,968.68
2019-01-28T01:02:48.039Z,968.70
2019-01-28T01:03:48.061Z,968.70
2019-01-28T01:04:48.041Z,968.66
2019-01-28T01:05:48.001Z,968.68
2019-01-28T01:06:47.990Z,968.65
2019-01-28T01:07:47.983Z,968.71
2019-01-28T01:08:47.984Z,968.66
2019-01-28T01:09:47.995Z,968.72
2019-01-28T01:10:47.953Z,968.65
2019-01-28T01:11:47.940Z,968.72
2019-01-28T01:12:47.925Z,968.71
2019-01-28T01:13:47.915Z,968.69
2019-01-28T01:14:47.979Z,968.70
2019-01-28T01:15:47.894Z,968.66
2019-01-28T01:16:47.883Z,968.67
2019-01-28T01:17:47.875Z,968.70
2019-01-28T01:18:47.917Z,968.72
2019-01-28T01:19:47.849Z,968.72
2019-01-28T01:20:47.862Z,968.77
2019-01-28T01:21:47.828Z,968.68
2019-01-28T01:22:47.821Z,968.70
2019-01-28T01:23:47.804Z,968.68
2019-01-28T01:24:47.818Z,968.69
2019-01-28T01:25:47.781Z,968.64
2019-01-28T01:26:47.800Z,968.67
2019-01-28T01:27:47.788Z,968.66
2019-01-28T01:28:47.757Z,968.75
2019-01-28T01:29:47.750Z,968.66
2019-01-28T01:30:47.752Z,968.72
2019-01-28T01:31:47.717Z,968.70
2019-01-28T01:32:47.704Z,968.68
2019-01-28T01:33:47.702Z,968.69
2019-01-28T01:34:47.708Z,968.66
2019-01-28T01:35:47.669Z,968.74
2019-01-28T01:36:47.664Z,968.70
2019-01-28T01:37:47.651Z,968.70
2019-01-28T01:38:47.688Z,968.68
2019-01-28T01:39:47.657Z,968.69
2019-01-28T01:40:47.618Z,968.67
2019-01-28T01:41:47.605Z,968.72
2019-01-28T01:42:47.593Z,968.68
2019-01-28T01:43:47.579Z,968.69
2019-01-28T01:44:47.597Z,968.64
2019-01-28T01:45:47.563Z,968.63
2019-01-28T01:46:47.573Z,968.68
2019-01-28T01:47:47.563Z,968.63
2019-01-28T01:48:47.562Z,968.66
2019-01-28T01:49:47.527Z,968.71
2019-01-28T01:50:47.506Z,968.69
2019-01-28T01:51:47.513Z,968.67
2019-01-28T01:52:47.483Z,968.63
2019-01-28T01:53:47.476Z,968.64
2019-01-28T01:54:47.457Z,968.63
2019-01-28T01:55:47.470Z,968.66
2019-01-28T01:56:47.433Z,968.58
2019-01-28T01:57:47.426Z,968.64
2019-01-28T01:58:47.415Z,968.66
2019-01-28T01:59:47.401Z,968.67
2019-01-28T02:00:47.416Z,968.56
2019-01-28T02:01:47.411Z,968.58
2019-01-28T02:02:47.400Z,968.68
2019-01-28T02:03:47.374Z,968.57
2019-01-28T02:04:47.348Z,968.60
2019-01-28T02:05:47.333Z,968.59
2019-01-28T02:06:47.353Z,968.63
2019-01-28T02:07:47.363Z,968.60
2019-01-28T02:08:47.327Z,968.59
2019-01-28T02:09:47.295Z,968.55
2019-01-28T02:10:47.316Z,968.55
2019-01-28T02:11:47.268Z,968.54
2019-01-28T02:12:47.283Z,968.59
2019-01-28T02:13:47.287Z,968.50
2019-01-28T02:14:47.238Z,968.53
2019-01-28T02:15:47.253Z,968.42
2019-01-28T02:16:47.218Z,968.46
2019-01-28T02:17:47.200Z,968.43
2019-01-28T02:18:47.208Z,968.45
2019-01-28T02:19:47.202Z,968.41
2019-01-28T02:20:47.195Z,968.43
2019-01-28T02:21:47.164Z,968.43
2019-01-28T02:22:47.170Z,968.41
2019-01-28T02:23:47.143Z,968.37
2019-01-28T02:24:47.148Z,968.36
2019-01-28T02:25:47.114Z,968.42
2019-01-28T02:26:47.126Z,968.40
2019-01-28T02:27:47.091Z,968.31
2019-01-28T02:28:47.079Z,968.36
2019-01-28T02:29:47.096Z,968.34
2019-01-28T02:30:47.081Z,968.31
2019-01-28T02:31:47.053Z,968.26
2019-01-28T02:32:47.035Z,968.25
2019-01-28T02:33:47.027Z,968.24
2019-01-28T02:34:47.016Z,968.27
2019-01-28T02:35:47.034Z,968.26
2019-01-28T02:36:46.993Z,968.25
2019-01-28T02:37:46.980Z,968.22
2019-01-28T02:38:46.970Z,968.19
2019-01-28T02:39:46.961Z,968.19
2019-01-28T02:40:46.970Z,968.18
2019-01-28T02:41:46.936Z,968.18
2019-01-28T02:42:46.923Z,968.18
2019-01-28T02:43:46.942Z,968.11
2019-01-28T02:44:46.901Z,968.10
2019-01-28T02:45:46.953Z,968.15
2019-01-28T02:46:46.902Z,968.13
2019-01-28T02:47:46.933Z,968.10
2019-01-28T02:48:46.859Z,968.14
2019-01-28T02:49:46.847Z,968.21
2019-01-28T02:50:46.848Z,968.16
2019-01-28T02:51:46.821Z,968.11
2019-01-28T02:52:46.839Z,968.14
2019-01-28T02:53:46.798Z,968.06
2019-01-28T02:54:46.793Z,968.10
2019-01-28T02:55:46.777Z,968.03
2019-01-28T02:56:46.798Z,968.02
2019-01-28T02:57:46.754Z,967.98
2019-01-28T02:58:46.748Z,967.97
2019-01-28T02:59:46.760Z,967.98
2019-01-28T03:00:46.721Z,967.98
2019-01-28T03:01:46.737Z,967.87
2019-01-28T03:02:46.702Z,967.93
2019-01-28T03:03:46.721Z,967.96
2019-01-28T03:04:46.678Z,967.96
2019-01-28T03:05:46.673Z,967.88
2019-01-28T03:06:46.657Z,967.88
2019-01-28T03:07:46.648Z,967.87
2019-01-28T03:08:46.661Z,967.82
2019-01-28T03:09:46.625Z,967.82
2019-01-28T03:10:46.704Z,967.84
2019-01-28T03:11:46.627Z,967.78
2019-01-28T03:12:46.600Z,967.78
2019-01-28T03:13:46.604Z,967.73
2019-01-28T03:14:46.566Z,967.76
2019-01-28T03:15:46.561Z,967.73
2019-01-28T03:16:46.541Z,967.75
2019-01-28T03:17:46.541Z,967.73
2019-01-28T03:18:46.552Z,967.79
2019-01-28T03:19:46.520Z,967.75
2019-01-28T03:20:46.497Z,967.67
2019-01-28T03:21:46.490Z,967.73
2019-01-28T03:22:46.477Z,967.70
2019-01-28T03:23:46.491Z,967.66
2019-01-28T03:24:46.464Z,967.64
2019-01-28T03:25:46.485Z,967.65
2019-01-28T03:26:46.431Z,967.62
2019-01-28T03:27:46.428Z,967.61
2019-01-28T03:28:46.414Z,967.66
2019-01-28T03:29:46.398Z,967.58
2019-01-28T03:30:46.416Z,967.55
2019-01-28T03:31:46.382Z,967.67
2019-01-28T03:32:46.366Z,967.54
2019-01-28T03:33:46.356Z,967.52
2019-01-28T03:34:46.346Z,967.57
2019-01-28T03:35:46.358Z,967.57
2019-01-28T03:36:46.319Z,967.57
2019-01-28T03:37:46.312Z,967.56
2019-01-28T03:38:46.297Z,967.62
2019-01-28T03:39:46.288Z,967.53
2019-01-28T03:40:46.301Z,967.52
2019-01-28T03:41:46.263Z,967.48
2019-01-28T03:42:46.254Z,967.47
2019-01-28T03:43:46.245Z,967.44
2019-01-28T03:44:46.234Z,967.48
2019-01-28T03:45:46.246Z,967.48
2019-01-28T03:46:46.214Z,967.37
2019-01-28T03:47:46.201Z,967.37
2019-01-28T03:48:46.316Z,967.45
2019-01-28T03:49:46.176Z,967.47
2019-01-28T03:50:46.165Z,967.40
2019-01-28T03:51:47.655Z,967.40
2019-01-28T03:52:46.157Z,967.37
2019-01-28T03:53:46.131Z,967.37
2019-01-28T03:54:46.152Z,967.41
2019-01-28T03:55:46.109Z,967.38
2019-01-28T03:56:46.099Z,967.26
2019-01-28T03:57:46.151Z,967.27
2019-01-28T03:58:46.079Z,967.25
2019-01-28T03:59:46.090Z,967.21
2019-01-28T04:00:46.059Z,967.24
2019-01-28T04:01:46.041Z,967.20
2019-01-28T04:02:46.036Z,967.12
2019-01-28T04:03:46.046Z,967.19
2019-01-28T04:04:46.033Z,967.16
2019-01-28T04:05:45.998Z,967.13
2019-01-28T04:06:45.987Z,967.12
2019-01-28T04:07:45.984Z,967.15
2019-01-28T04:08:45.965Z,967.19
2019-01-28T04:09:45.990Z,967.20
2019-01-28T04:10:45.943Z,967.21
2019-01-28T04:11:45.962Z,967.12
2019-01-28T04:12:45.947Z,967.13
2019-01-28T04:13:45.935Z,967.16
2019-01-28T04:14:45.899Z,967.20
2019-01-28T04:15:45.912Z,967.17
2019-01-28T04:16:45.904Z,967.21
2019-01-28T04:17:45.869Z,967.11
2019-01-28T04:18:45.854Z,967.16
2019-01-28T04:19:45.846Z,967.13
2019-01-28T04:20:45.856Z,967.13
2019-01-28T04:21:45.859Z,967.21
2019-01-28T04:22:45.840Z,967.13
2019-01-28T04:23:45.813Z,967.18
2019-01-28T04:24:45.791Z,967.08
2019-01-28T04:25:45.780Z,967.16
2019-01-28T04:26:45.813Z,967.23
2019-01-28T04:27:45.753Z,967.18
2019-01-28T04:28:45.755Z,967.17
2019-01-28T04:29:45.737Z,967.14
2019-01-28T04:30:45.736Z,967.16
2019-01-28T04:31:45.708Z,967.12
2019-01-28T04:32:45.716Z,967.05
2019-01-28T04:33:45.718Z,967.16
2019-01-28T04:34:45.689Z,967.11
2019-01-28T04:35:45.678Z,967.13
2019-01-28T04:36:45.662Z,967.12
2019-01-28T04:37:45.675Z,967.04
2019-01-28T04:38:45.641Z,967.09
2019-01-28T04:39:45.643Z,967.01
2019-01-28T04:40:45.610Z,967.06
2019-01-28T04:41:45.602Z,967.12
2019-01-28T04:42:45.624Z,967.10
2019-01-28T04:43:45.588Z,967.16
2019-01-28T04:44:45.563Z,967.18
2019-01-28T04:45:45.553Z,967.16
2019-01-28T04:46:45.546Z,967.20
2019-01-28T04:47:45.564Z,967.18
2019-01-28T04:48:45.524Z,967.14
2019-01-28T04:49:45.516Z,967.12
2019-01-28T04:50:45.499Z,967.12
2019-01-28T04:51:45.495Z,967.12
2019-01-28T04:52:45.500Z,967.12
2019-01-28T04:53:45.463Z,967.13
2019-01-28T04:54:45.458Z,967.04
2019-01-28T04:55:45.442Z,967.10
2019-01-28T04:56:45.461Z,967.03
2019-01-28T04:57:45.424Z,966.99
2019-01-28T04:58:45.434Z,967.04
2019-01-28T04:59:45.395Z,967.10
2019-01-28T05:00:45.385Z,967.01
2019-01-28T05:01:45.382Z,967.07
2019-01-28T05:02:45.385Z,967.07
2019-01-28T05:03:45.383Z,967.05
2019-01-28T05:04:45.338Z,967.01
2019-01-28T05:05:45.331Z,967.04
2019-01-28T05:06:45.318Z,967.01
2019-01-28T05:07:45.316Z,967.01
2019-01-28T05:08:45.320Z,967.04
2019-01-28T05:09:45.282Z,967.00
2019-01-28T05:10:45.276Z,967.06
2019-01-28T05:11:45.267Z,966.96
2019-01-28T05:12:45.259Z,967.04
2019-01-28T05:13:45.276Z,967.02
2019-01-28T05:14:45.273Z,967.01
2019-01-28T05:15:45.216Z,966.95
2019-01-28T05:16:45.245Z,966.97
2019-01-28T05:17:45.198Z,966.95
2019-01-28T05:18:45.186Z,966.98
2019-01-28T05:19:45.188Z,966.99
2019-01-28T05:20:45.173Z,966.94
2019-01-28T05:21:45.173Z,966.94
2019-01-28T05:22:45.141Z,966.90
2019-01-28T05:23:45.177Z,966.87
2019-01-28T05:24:45.114Z,966.92
2019-01-28T05:25:45.106Z,966.91
2019-01-28T05:26:45.097Z,966.90
2019-01-28T05:27:45.104Z,966.91
2019-01-28T05:28:45.106Z,966.83
2019-01-28T05:29:45.089Z,966.92
2019-01-28T05:30:45.066Z,966.87
2019-01-28T05:31:45.055Z,966.85
2019-01-28T05:32:45.029Z,966.82
2019-01-28T05:33:45.018Z,966.88
2019-01-28T05:34:45.028Z,966.82
2019-01-28T05:35:45.043Z,966.88
2019-01-28T05:36:44.989Z,966.85
2019-01-28T05:37:44.971Z,966.84
2019-01-28T05:38:44.996Z,966.83
2019-01-28T05:39:44.954Z,966.87
2019-01-28T05:40:44.953Z,966.82
2019-01-28T05:41:44.952Z,966.84
2019-01-28T05:42:44.916Z,966.84
2019-01-28T05:43:44.936Z,966.84
2019-01-28T05:44:44.893Z,966.79
2019-01-28T05:45:44.921Z,966.83
2019-01-28T05:46:44.878Z,966.81
2019-01-28T05:47:44.859Z,966.77
2019-01-28T05:48:44.850Z,966.76
2019-01-28T05:49:44.842Z,966.74
2019-01-28T05:50:44.855Z,966.71
2019-01-28T05:51:44.815Z,966.72
2019-01-28T05:52:44.836Z,966.75
2019-01-28T05:53:44.825Z,966.75
2019-01-28T05:54:44.800Z,966.75
2019-01-28T05:55:44.771Z,966.78
2019-01-28T05:56:44.763Z,966.69
2019-01-28T05:57:44.785Z,966.74
2019-01-28T05:58:44.744Z,966.69
2019-01-28T05:59:44.736Z,966.76
2019-01-28T06:00:44.743Z,966.73
2019-01-28T06:01:44.728Z,966.80
2019-01-28T06:02:44.697Z,966.76
2019-01-28T06:03:44.708Z,966.72
2019-01-28T06:04:44.700Z,966.78
2019-01-28T06:05:44.668Z,966.73
2019-01-28T06:06:44.655Z,966.83
2019-01-28T06:07:44.639Z,966.82
2019-01-28T06:08:44.661Z,966.72
2019-01-28T06:09:44.621Z,966.79
2019-01-28T06:10:44.610Z,966.77
2019-01-28T06:11:44.629Z,966.80
2019-01-28T06:12:44.588Z,966.86
2019-01-28T06:13:44.573Z,966.81
2019-01-28T06:14:44.599Z,966.82
2019-01-28T06:15:44.550Z,966.78
2019-01-28T06:16:44.540Z,966.75
2019-01-28T06:17:44.531Z,966.83
2019-01-28T06:18:44.516Z,966.81
2019-01-28T06:19:44.535Z,966.84
2019-01-28T06:20:44.494Z,966.85
2019-01-28T06:21:44.485Z,966.90
2019-01-28T06:22:44.507Z,966.84
2019-01-28T06:23:44.472Z,966.88
2019-01-28T06:24:44.495Z,966.90
2019-01-28T06:25:44.441Z,966.90
2019-01-28T06:26:44.445Z,966.83
2019-01-28T06:27:44.436Z,966.86
2019-01-28T06:28:44.434Z,966.94
2019-01-28T06:29:44.393Z,966.92
2019-01-28T06:30:44.389Z,966.88
2019-01-28T06:31:44.380Z,966.81
2019-01-28T06:32:44.362Z,966.89
2019-01-28T06:33:44.401Z,966.95
2019-01-28T06:34:44.338Z,966.95
2019-01-28T06:35:44.376Z,966.89
2019-01-28T06:36:44.325Z,966.94
2019-01-28T06:37:44.304Z,966.91
2019-01-28T06:38:44.338Z,966.92
2019-01-28T06:39:44.285Z,966.95
2019-01-28T06:40:44.269Z,966.96
2019-01-28T06:41:44.275Z,966.97
2019-01-28T06:42:44.258Z,966.93
2019-01-28T06:43:44.264Z,966.94
2019-01-28T06:44:44.230Z,967.00
2019-01-28T06:45:44.218Z,966.95
2019-01-28T06:46:44.211Z,966.96
2019-01-28T06:47:46.854Z,966.95
2019-01-28T06:48:44.179Z,966.87
2019-01-28T06:49:44.188Z,966.93
2019-01-28T06:50:44.162Z,966.96
2019-01-28T06:51:44.330Z,966.91
2019-01-28T06:52:44.152Z,966.90
2019-01-28T06:53:44.124Z,966.94
2019-01-28T06:54:44.134Z,966.95
2019-01-28T06:55:44.126Z,966.93
2019-01-28T06:56:44.116Z,966.94
2019-01-28T06:57:44.089Z,967.02
2019-01-28T06:58:44.085Z,967.03
2019-01-28T06:59:44.063Z,966.97
2019-01-28T07:00:44.045Z,967.03
2019-01-28T07:01:44.063Z,967.03
2019-01-28T07:02:44.027Z,967.01
2019-01-28T07:03:44.017Z,967.00
2019-01-28T07:04:44.000Z,967.02
2019-01-28T07:05:44.029Z,967.10
2019-01-28T07:06:44.004Z,967.08
2019-01-28T07:07:43.971Z,967.11
2019-01-28T07:08:43.963Z,967.14
2019-01-28T07:09:43.947Z,967.07
2019-01-28T07:10:43.935Z,967.18
2019-01-28T07:11:43.953Z,967.15
2019-01-28T07:12:43.922Z,967.17
2019-01-28T07:13:43.902Z,967.14
2019-01-28T07:14:43.889Z,967.15
2019-01-28T07:15:43.884Z,967.13
2019-01-28T07:16:43.922Z,967.19
2019-01-28T07:17:43.865Z,967.18
2019-01-28T07:18:43.853Z,967.27
2019-01-28T07:19:43.835Z,967.29
2019-01-28T07:20:43.913Z,967.26
2019-01-28T07:21:43.815Z,967.31
2019-01-28T07:22:43.800Z,967.33
2019-01-28T07:23:43.854Z,967.36
2019-01-28T07:24:44.353Z,967.37
2019-01-28T07:25:43.778Z,967.36
2019-01-28T07:26:43.758Z,967.31
2019-01-28T07:27:43.752Z,967.41
2019-01-28T07:28:43.769Z,967.39
2019-01-28T07:29:43.745Z,967.36
2019-01-28T07:30:43.714Z,967.42
2019-01-28T07:31:43.707Z,967.41
2019-01-28T07:32:44.041Z,967.42
2019-01-28T07:33:43.713Z,967.40
2019-01-28T07:34:43.671Z,967.49
2019-01-28T07:35:43.683Z,967.52
2019-01-28T07:36:43.647Z,967.44
2019-01-28T07:37:43.668Z,967.42
2019-01-28T07:38:43.625Z,967.36
2019-01-28T07:39:43.638Z,967.48
2019-01-28T07:40:43.610Z,967.44
2019-01-28T07:41:43.597Z,967.40
2019-01-28T07:42:43.582Z,967.47
2019-01-28T07:43:43.594Z,967.48
2019-01-28T07:44:43.575Z,967.48
2019-01-28T07:45:45.410Z,967.58
2019-01-28T07:46:43.589Z,967.48
2019-01-28T07:47:43.523Z,967.48
2019-01-28T07:48:43.537Z,967.53
2019-01-28T07:49:43.511Z,967.54
2019-01-28T07:50:43.492Z,967.54
2019-01-28T07:51:43.480Z,967.50
2019-01-28T07:52:43.467Z,967.52
2019-01-28T07:53:43.488Z,967.46
2019-01-28T07:54:43.451Z,967.50
2019-01-28T07:55:43.462Z,967.59
2019-01-28T07:56:43.880Z,967.50
2019-01-28T07:57:43.446Z,967.57
2019-01-28T07:58:43.413Z,967.61
2019-01-28T07:59:43.393Z,967.64
2019-01-28T08:00:43.382Z,967.58
2019-01-28T08:01:43.397Z,967.54
2019-01-28T08:02:43.362Z,967.57
2019-01-28T08:03:43.354Z,967.55
2019-01-28T08:04:43.336Z,967.53
2019-01-28T08:05:43.336Z,967.59
2019-01-28T08:06:43.335Z,967.57
2019-01-28T08:07:43.301Z,967.60
2019-01-28T08:08:43.292Z,967.57
2019-01-28T08:09:43.358Z,967.52
2019-01-28T08:10:43.288Z,967.53
2019-01-28T08:11:43.260Z,967.63
2019-01-28T08:12:43.247Z,967.62
2019-01-28T08:13:43.253Z,967.61
2019-01-28T08:14:43.226Z,967.59
2019-01-28T08:15:43.211Z,967.64
2019-01-28T08:16:43.207Z,967.69
2019-01-28T08:17:43.191Z,967.69
2019-01-28T08:18:43.229Z,967.70
2019-01-28T08:19:43.193Z,967.68
2019-01-28T08:20:43.157Z,967.71
2019-01-28T08:21:43.154Z,967.71
2019-01-28T08:22:43.635Z,967.81
2019-01-28T08:23:43.149Z,967.70
2019-01-28T08:24:43.118Z,967.72
2019-01-28T08:25:43.131Z,967.70
2019-01-28T08:26:43.117Z,967.72
2019-01-28T08:27:43.084Z,967.70
2019-01-28T08:28:43.070Z,967.72
2019-01-28T08:29:43.180Z,967.66
2019-01-28T08:30:43.139Z,967.72
2019-01-28T08:31:43.036Z,967.70
2019-01-28T08:32:43.024Z,967.80
2019-01-28T08:33:43.014Z,967.66
2019-01-28T08:34:43.234Z,967.66
2019-01-28T08:35:43.026Z,967.84
2019-01-28T08:36:42.979Z,967.75
2019-01-28T08:37:42.977Z,967.73
2019-01-28T08:38:42.975Z,967.77
2019-01-28T08:39:43.073Z,967.79
2019-01-28T08:40:42.967Z,967.78
2019-01-28T08:41:42.939Z,967.78
2019-01-28T08:42:42.942Z,967.76
2019-01-28T08:43:42.901Z,967.76
2019-01-28T08:44:42.903Z,967.75
2019-01-28T08:45:42.885Z,967.80
2019-01-28T08:46:42.918Z,967.77
2019-01-28T08:47:42.892Z,967.78
2019-01-28T08:48:42.851Z,967.79
2019-01-28T08:49:42.847Z,967.76
2019-01-28T08:50:42.830Z,967.76
2019-01-28T08:51:42.816Z,967.77
2019-01-28T08:52:42.831Z,967.89
2019-01-28T08:53:42.792Z,967.67
2019-01-28T08:54:42.840Z,967.81
2019-01-28T08:55:42.800Z,967.83
2019-01-28T08:56:42.759Z,967.80
2019-01-28T08:57:42.750Z,967.86
2019-01-28T08:58:42.781Z,967.88
2019-01-28T08:59:42.742Z,967.91
2019-01-28T09:00:42.739Z,967.92
2019-01-28T09:01:42.712Z,967.96
2019-01-28T09:02:42.704Z,967.99
2019-01-28T09:03:42.781Z,968.00
2019-01-28T09:04:42.684Z,968.02
2019-01-28T09:05:42.679Z,967.94
2019-01-28T09:06:42.679Z,968.06
2019-01-28T09:07:42.640Z,968.01
2019-01-28T09:08:42.627Z,968.02
2019-01-28T09:09:42.639Z,968.01
2019-01-28T09:10:42.616Z,968.06
2019-01-28T09:11:42.614Z,968.07
2019-01-28T09:12:43.065Z,968.06
2019-01-28T09:13:42.573Z,968.07
2019-01-28T09:14:42.565Z,968.03
2019-01-28T09:15:42.544Z,968.07
2019-01-28T09:16:42.535Z,968.05
2019-01-28T09:17:42.566Z,968.12
2019-01-28T09:18:42.525Z,968.13
2019-01-28T09:19:42.531Z,968.05
2019-01-28T09:20:42.497Z,968.20
2019-01-28T09:21:42.503Z,968.15
2019-01-28T09:22:42.479Z,968.12
2019-01-28T09:23:42.487Z,968.14
2019-01-28T09:24:42.445Z,968.16
2019-01-28T09:25:42.431Z,968.24
2019-01-28T09:26:42.424Z,968.21
2019-01-28T09:27:42.410Z,968.25
2019-01-28T09:28:42.449Z,968.26
2019-01-28T09:29:42.393Z,968.24
2019-01-28T09:30:42.392Z,968.28
2019-01-28T09:31:42.365Z,968.27
2019-01-28T09:32:42.358Z,968.33
2019-01-28T09:33:42.388Z,968.28
2019-01-28T09:34:42.338Z,968.36
2019-01-28T09:35:42.324Z,968.36
2019-01-28T09:36:42.320Z,968.37
2019-01-28T09:37:42.321Z,968.46
2019-01-28T09:38:42.342Z,968.48
2019-01-28T09:39:42.279Z,968.64
2019-01-28T09:40:42.268Z,968.41
2019-01-28T09:41:42.256Z,968.51
2019-01-28T09:42:42.247Z,968.50
2019-01-28T09:43:42.264Z,968.53
2019-01-28T09:44:42.261Z,968.64
2019-01-28T09:45:42.215Z,968.60
2019-01-28T09:46:42.201Z,968.67
2019-01-28T09:47:42.186Z,968.71
2019-01-28T09:48:42.211Z,968.75
2019-01-28T09:49:42.220Z,968.73
2019-01-28T09:50:42.175Z,968.75
2019-01-28T09:51:42.160Z,968.77
2019-01-28T09:52:42.132Z,968.75
2019-01-28T09:53:42.167Z,968.84
2019-01-28T09:54:43.618Z,968.80
2019-01-28T09:55:42.099Z,968.76
2019-01-28T09:56:42.092Z,968.82
2019-01-28T09:57:42.128Z,968.80
2019-01-28T09:58:42.117Z,968.85
2019-01-28T09:59:42.061Z,968.86
2019-01-28T10:00:42.051Z,968.85
2019-01-28T10:01:42.044Z,968.88
2019-01-28T10:02:42.026Z,968.88
2019-01-28T10:03:42.079Z,968.91
2019-01-28T10:04:42.006Z,968.99
2019-01-28T10:05:42.000Z,969.02
2019-01-28T10:06:41.980Z,968.93
2019-01-28T10:07:41.970Z,969.01
2019-01-28T10:08:41.989Z,969.06
2019-01-28T10:09:41.951Z,969.09
2019-01-28T10:10:41.939Z,969.09
2019-01-28T10:11:41.932Z,969.09
2019-01-28T10:12:41.915Z,969.11
2019-01-28T10:13:41.947Z,969.16
2019-01-28T10:14:41.924Z,969.21
2019-01-28T10:15:41.876Z,969.22
2019-01-28T10:16:41.870Z,969.24
2019-01-28T10:17:41.860Z,969.18
2019-01-28T10:18:42.159Z,969.16
2019-01-28T10:19:41.837Z,969.15
2019-01-28T10:20:44.587Z,969.31
2019-01-28T10:21:41.867Z,969.28
2019-01-28T10:22:41.798Z,969.26
2019-01-28T10:23:42.024Z,969.33
2019-01-28T10:24:41.776Z,969.30
2019-01-28T10:25:41.781Z,969.33
2019-01-28T10:26:41.754Z,969.31
2019-01-28T10:27:41.757Z,969.32
2019-01-28T10:28:41.761Z,969.39
2019-01-28T10:29:41.732Z,969.36
2019-01-28T10:30:41.734Z,969.38
2019-01-28T10:31:41.723Z,969.30
2019-01-28T10:32:41.697Z,969.30
2019-01-28T10:33:41.701Z,969.33
2019-01-28T10:34:41.682Z,969.31
2019-01-28T10:35:41.681Z,969.40
2019-01-28T10:36:41.657Z,969.38
2019-01-28T10:37:42.083Z,969.37
2019-01-28T10:38:41.760Z,969.41
2019-01-28T10:39:41.635Z,969.46
2019-01-28T10:40:41.672Z,969.52
2019-01-28T10:41:41.606Z,969.56
2019-01-28T10:42:41.585Z,969.56
2019-01-28T10:43:41.592Z,969.57
2019-01-28T10:44:41.553Z,969.49
2019-01-28T10:45:41.572Z,969.59
2019-01-28T10:46:42.353Z,969.62
2019-01-28T10:47:41.689Z,969.64
2019-01-28T10:48:41.520Z,969.68
2019-01-28T10:49:41.520Z,969.67
2019-01-28T10:50:41.489Z,969.65
2019-01-28T10:51:41.503Z,969.65
2019-01-28T10:52:41.470Z,969.69
2019-01-28T10:53:41.456Z,969.74
2019-01-28T10:54:41.473Z,969.73
2019-01-28T10:55:41.465Z,969.67
2019-01-28T10:56:41.468Z,969.73
2019-01-28T10:57:41.410Z,969.71
2019-01-28T10:58:41.396Z,969.68
2019-01-28T10:59:41.388Z,969.69
2019-01-28T11:00:41.380Z,969.74
2019-01-28T11:01:41.483Z,969.75
2019-01-28T11:02:41.354Z,969.68
2019-01-28T11:03:41.347Z,969.72
2019-01-28T11:04:41.369Z,969.82
2019-01-28T11:05:41.334Z,969.85
2019-01-28T11:06:41.310Z,969.80
2019-01-28T11:07:41.322Z,969.82
2019-01-28T11:08:41.290Z,969.87
2019-01-28T11:09:41.316Z,969.80
2019-01-28T11:10:41.362Z,969.81
2019-01-28T11:11:42.472Z,969.79
2019-01-28T11:12:41.291Z,969.82
2019-01-28T11:13:41.251Z,969.84
2019-01-28T11:14:41.256Z,969.93
2019-01-28T11:15:41.334Z,969.92
2019-01-28T11:16:41.335Z,969.91
2019-01-28T11:17:41.272Z,969.95
2019-01-28T11:18:41.223Z,969.94
2019-01-28T11:19:41.202Z,969.96
2019-01-28T11:20:41.257Z,969.95
2019-01-28T11:21:41.188Z,969.99
2019-01-28T11:22:41.230Z,970.06
2019-01-28T11:23:41.137Z,969.96
2019-01-28T11:24:41.154Z,969.98
2019-01-28T11:25:41.240Z,970.10
2019-01-28T11:26:41.142Z,970.05
2019-01-28T11:27:41.095Z,970.05
2019-01-28T11:28:41.130Z,970.08
2019-01-28T11:29:41.141Z,970.18
2019-01-28T11:30:41.186Z,970.20
2019-01-28T11:31:41.136Z,970.16
2019-01-28T11:32:41.184Z,970.19
2019-01-28T11:33:41.107Z,970.24
2019-01-28T11:34:41.018Z,970.24
2019-01-28T11:35:40.998Z,970.31
2019-01-28T11:36:41.075Z,970.31
2019-01-28T11:37:40.977Z,970.36
2019-01-28T11:38:41.051Z,970.30
2019-01-28T11:39:41.087Z,970.37
2019-01-28T11:40:41.894Z,970.45
2019-01-28T11:41:41.139Z,970.40
2019-01-28T11:42:40.959Z,970.40
2019-01-28T11:43:40.953Z,970.44
2019-01-28T11:44:40.970Z,970.43
2019-01-28T11:45:40.979Z,970.52
2019-01-28T11:46:40.996Z,970.55
2019-01-28T11:47:40.853Z,970.44
2019-01-28T11:48:40.847Z,970.52
2019-01-28T11:49:40.881Z,970.54
2019-01-28T11:50:40.875Z,970.60
2019-01-28T11:51:40.835Z,970.62
2019-01-28T11:52:40.821Z,970.65
2019-01-28T11:53:40.814Z,970.62
2019-01-28T11:54:40.777Z,970.67
2019-01-28T11:55:40.772Z,970.73
2019-01-28T11:56:40.792Z,970.70
2019-01-28T11:57:40.762Z,970.73
2019-01-28T11:58:40.731Z,970.71
2019-01-28T11:59:40.749Z,970.71
2019-01-28T12:00:40.731Z,970.71
2019-01-28T12:01:40.733Z,970.71
2019-01-28T12:02:40.696Z,970.73
2019-01-28T12:03:40.713Z,970.82
2019-01-28T12:04:40.665Z,970.82
2019-01-28T12:05:40.678Z,970.79
2019-01-28T12:06:40.669Z,970.81
2019-01-28T12:07:40.640Z,970.81
2019-01-28T12:08:40.632Z,970.88
2019-01-28T12:09:40.630Z,970.97
2019-01-28T12:10:40.637Z,970.95
2019-01-28T12:11:40.589Z,970.94
2019-01-28T12:12:40.625Z,970.96
2019-01-28T12:13:40.595Z,971.05
2019-01-28T12:14:40.557Z,970.97
2019-01-28T12:15:40.562Z,971.07
2019-01-28T12:16:40.553Z,971.00
2019-01-28T12:17:40.560Z,971.09
2019-01-28T12:18:40.527Z,971.13
2019-01-28T12:19:40.504Z,971.06
2019-01-28T12:20:40.494Z,971.12
2019-01-28T12:21:40.487Z,971.13
2019-01-28T12:22:40.484Z,971.21
2019-01-28T12:23:40.466Z,971.21
2019-01-28T12:24:40.436Z,971.17
2019-01-28T12:25:40.428Z,971.31
2019-01-28T12:26:40.458Z,971.20
2019-01-28T12:27:40.413Z,971.22
2019-01-28T12:28:40.401Z,971.27